Time;durP1;ratioP1;P1;durP2;ratioP2;P2;SDS_P1;SDS_P2;PMS_P1;PMS_P2;Temp;Humidity;BMP_temperature;BMP_pressure;BME280_temperature;BME280_humidity;BME280_pressure;Samples;Min_cycle;Max_cycle;Signal;HPM_P1;HPM_P2
2022/08/26 00:01:09;;;;;;;;;;;;;;;15.81;96.51;98100.72;5108421;28;19919;-69
2022/08/26 00:03:34;;;;;;;;;;;;;;;15.79;95.83;98097.31;5107521;28;20222;-69
2022/08/26 00:05:59;;;;;;;;;;;;;;;15.78;95.80;98099.09;5107432;28;19960;-69
2022/08/26 00:08:25;;;;;;;;;;;;;;;15.66;95.46;98097.00;5117175;28;19919;-69
2022/08/26 00:10:50;;;;;;;;;;;;;;;15.66;95.44;98097.00;5111071;28;19912;-69
2022/08/26 00:13:15;;;;;;;;;;;;;;;15.63;95.63;98096.31;5107298;28;20204;-69
2022/08/26 00:15:41;;;;;;;;;;;;;;;15.55;94.80;98094.03;5107462;28;19915;-69
2022/08/26 00:18:06;;;;;;;;;;;;;;;15.59;95.01;98092.94;5107419;28;20216;-69
2022/08/26 00:20:32;;;;;;;;;;;;;;;15.61;95.76;98088.44;5120435;28;19915;-69
2022/08/26 00:22:58;;;;;;;;;;;;;;;15.53;95.75;98090.59;5127721;28;19907;-69
2022/08/26 00:25:23;;;;;;;;;;;;;;;15.38;96.52;98093.09;5127444;28;20108;-69
2022/08/26 00:27:49;;;;;;;;;;;;;;;15.24;97.74;98093.72;5127041;28;19919;-69
2022/08/26 00:30:18;;;;;;;;;;;;;;;15.22;98.47;98095.56;5116181;28;19920;-69
2022/08/26 00:32:44;;;;;;;;;;;;;;;15.19;98.63;98101.03;5106783;28;20135;-69
2022/08/26 00:35:10;;;;;;;;;;;;;;;15.20;99.41;98100.09;5106823;28;19908;-69
2022/08/26 00:37:35;;;;;;;;;;;;;;;15.18;98.78;98108.13;5106743;28;19908;-69
2022/08/26 00:40:01;;;;;;;;;;;;;;;15.20;99.06;98097.44;5114967;28;19918;-69
2022/08/26 00:42:26;;;;;;;;;;;;;;;15.22;97.73;98100.84;5126945;28;19907;-69
2022/08/26 00:44:52;;;;;;;;;;;;;;;15.23;96.93;98098.13;5127089;28;19907;-69
2022/08/26 00:47:23;;;;;;;;;;;;;;;15.06;96.65;98100.72;5127038;28;19971;-69
2022/08/26 00:49:50;;;;;;;;;;;;;;;15.01;97.25;98096.56;5120203;28;19919;-69
2022/08/26 00:52:17;;;;;;;;;;;;;;;15.00;96.98;98100.16;5106434;28;20261;-69
2022/08/26 00:54:48;;;;;;;;;;;;;;;15.07;97.80;98101.59;5106373;28;19916;-69
2022/08/26 00:57:15;;;;;;;;;;;;;;;15.03;97.17;98105.31;5106429;28;19979;-69
2022/08/26 00:59:41;;;;;;;;;;;;;;;14.99;96.68;98101.06;5111151;28;19911;-69
2022/08/26 01:02:06;;;;;;;;;;;;;;;15.09;97.11;98105.00;5126864;28;19908;-69
2022/08/26 01:04:34;;;;;;;;;;;;;;;15.10;97.55;98106.75;5126694;28;19915;-69
2022/08/26 01:06:59;;;;;;;;;;;;;;;15.08;97.26;98103.31;5126618;28;19914;-69
2022/08/26 01:09:25;;;;;;;;;;;;;;;15.05;97.61;98108.75;5123725;28;20200;-69
2022/08/26 01:11:54;;;;;;;;;;;;;;;14.97;98.47;98110.88;5106049;28;19982;-69
2022/08/26 01:14:20;;;;;;;;;;;;;;;14.85;98.71;98100.84;5106105;28;19908;-69
2022/08/26 01:16:45;;;;;;;;;;;;;;;14.80;98.70;98098.38;5113602;28;19948;-69
2022/08/26 01:19:31;;;;;;;;;;;;;;;14.83;98.81;98107.97;5125451;28;19943;-69
2022/08/26 01:22:28;;;;;;;;;;;;;;;14.92;98.94;98107.56;5105647;28;20004;-69
2022/08/26 01:24:55;;;;;;;;;;;;;;;15.02;99.19;98103.56;5093937;28;19908;-69
2022/08/26 01:27:20;;;;;;;;;;;;;;;15.04;98.66;98107.03;5106930;28;19949;-69
2022/08/26 01:29:47;;;;;;;;;;;;;;;14.97;98.10;98114.38;5110612;28;19916;-69
2022/08/26 01:32:14;;;;;;;;;;;;;;;14.88;97.30;98111.28;5126028;28;19912;-69
2022/08/26 01:34:40;;;;;;;;;;;;;;;14.57;98.18;98110.91;5126133;28;19908;-69
2022/08/26 01:37:11;;;;;;;;;;;;;;;14.52;99.53;98116.41;5126331;28;19911;-69
2022/08/26 01:39:37;;;;;;;;;;;;;;;14.57;99.65;98116.22;5122227;28;19919;-69
2022/08/26 01:42:04;;;;;;;;;;;;;;;14.48;99.87;98112.19;5105551;28;20249;-69
2022/08/26 01:44:35;;;;;;;;;;;;;;;14.64;100.00;98117.66;5105471;28;19908;-69
2022/08/26 01:47:00;;;;;;;;;;;;;;;14.71;100.00;98119.97;5105453;28;20162;-69
2022/08/26 01:49:27;;;;;;;;;;;;;;;14.71;100.00;98113.81;5107284;28;19915;-69
2022/08/26 01:51:53;;;;;;;;;;;;;;;14.45;100.00;98116.72;5125604;28;19923;-69
2022/08/26 01:54:19;;;;;;;;;;;;;;;14.40;100.00;98119.56;5125035;28;20182;-69
2022/08/26 01:56:45;;;;;;;;;;;;;;;14.40;100.00;98118.75;5125670;28;19943;-69
2022/08/26 01:59:13;;;;;;;;;;;;;;;14.50;100.00;98126.22;5125372;28;20152;-69
2022/08/26 02:01:38;;;;;;;;;;;;;;;14.45;100.00;98127.31;5105410;28;19919;-69
2022/08/26 02:04:22;;;;;;;;;;;;;;;14.39;99.40;98123.16;5105162;28;19907;-69
2022/08/26 02:06:48;;;;;;;;;;;;;;;14.49;100.00;98123.66;5105094;28;19918;-69
2022/08/26 02:09:14;;;;;;;;;;;;;;;14.50;100.00;98126.22;5104964;28;19908;-69
2022/08/26 02:11:39;;;;;;;;;;;;;;;14.54;100.00;98129.59;5124799;28;20104;-69
2022/08/26 02:14:08;;;;;;;;;;;;;;;14.49;100.00;98123.66;5125444;28;19952;-69
2022/08/26 02:16:37;;;;;;;;;;;;;;;14.48;99.92;98122.78;5125436;28;19908;-69
2022/08/26 02:19:03;;;;;;;;;;;;;;;14.45;100.00;98125.56;5125376;28;20166;-69
2022/08/26 02:21:29;;;;;;;;;;;;;;;14.41;100.00;98125.75;5108228;28;19987;-69
2022/08/26 02:23:54;;;;;;;;;;;;;;;14.54;100.00;98132.22;5124932;28;20116;-69
2022/08/26 02:26:21;;;;;;;;;;;;;;;14.57;100.00;98127.69;5125412;28;19939;-69
2022/08/26 02:29:01;;;;;;;;;;;;;;;14.57;100.00;98126.81;5125064;28;20196;-69
2022/08/26 02:31:27;;;;;;;;;;;;;;;14.46;100.00;98129.91;5106822;28;19917;-69
2022/08/26 02:33:52;;;;;;;;;;;;;;;14.33;100.00;98125.22;5104723;28;19908;-69
2022/08/26 02:36:24;;;;;;;;;;;;;;;14.29;100.00;98131.53;5104637;28;19908;-69
2022/08/26 02:38:50;;;;;;;;;;;;;;;14.11;99.72;98129.66;5104820;28;19910;-69
2022/08/26 02:41:15;;;;;;;;;;;;;;;14.09;99.80;98132.38;5120042;28;19918;-69
2022/08/26 02:43:41;;;;;;;;;;;;;;;14.17;100.00;98137.31;5124969;28;19908;-69
2022/08/26 02:46:06;;;;;;;;;;;;;;;14.10;100.00;98135.84;5124988;28;19915;-69
2022/08/26 02:48:31;;;;;;;;;;;;;;;14.12;100.00;98141.94;5124642;28;19911;-69
2022/08/26 02:50:58;;;;;;;;;;;;;;;14.19;100.00;98131.06;5111589;28;19919;-69
2022/08/26 02:53:23;;;;;;;;;;;;;;;14.29;100.00;98128.91;5104538;28;19912;-69
2022/08/26 02:55:48;;;;;;;;;;;;;;;14.31;100.00;98121.78;5104522;28;19949;-69
2022/08/26 02:58:14;;;;;;;;;;;;;;;14.30;100.00;98120.06;5104459;28;20138;-69
2022/08/26 03:00:40;;;;;;;;;;;;;;;14.29;100.00;98123.59;5114640;28;19912;-69
2022/08/26 03:03:05;;;;;;;;;;;;;;;14.21;99.93;98115.09;5124941;28;19915;-69
2022/08/26 03:05:31;;;;;;;;;;;;;;;14.15;100.00;98118.88;5128210;28;19912;-69
2022/08/26 03:07:56;;;;;;;;;;;;;;;14.19;100.00;98119.59;5128702;28;19949;-69
2022/08/26 03:10:21;;;;;;;;;;;;;;;14.29;100.00;98123.59;5121196;28;19994;-69
2022/08/26 03:12:47;;;;;;;;;;;;;;;14.29;100.00;98123.59;5108396;28;19932;-69
2022/08/26 03:15:13;;;;;;;;;;;;;;;14.22;100.00;98119.47;5108406;28;19950;-69
2022/08/26 03:17:39;;;;;;;;;;;;;;;14.12;99.63;98123.44;5108372;28;19908;-69
2022/08/26 03:20:08;;;;;;;;;;;;;;;13.91;100.00;98119.00;5112963;28;19918;-69
2022/08/26 03:22:33;;;;;;;;;;;;;;;13.93;100.00;98117.16;5128964;28;19915;-69
2022/08/26 03:24:58;;;;;;;;;;;;;;;13.95;100.00;98116.16;5128659;28;19970;-69
2022/08/26 03:27:23;;;;;;;;;;;;;;;13.92;100.00;98118.09;5128514;28;19907;-69
2022/08/26 03:32:33;;;;;;;;;;;;;;;14.00;100.00;98123.94;5108001;28;19958;-69
2022/08/26 03:34:58;;;;;;;;;;;;;;;13.93;100.00;98117.16;5108020;28;19911;-69
2022/08/26 03:37:23;;;;;;;;;;;;;;;13.99;100.00;98122.22;5107990;28;19909;-69
2022/08/26 03:39:48;;;;;;;;;;;;;;;14.05;100.00;98124.59;5109791;28;19908;-69
2022/08/26 03:42:14;;;;;;;;;;;;;;;14.08;100.00;98127.13;5128310;28;19907;-69
2022/08/26 03:44:39;;;;;;;;;;;;;;;13.92;100.00;98118.09;5128541;27;19908;-69
2022/08/26 03:47:05;;;;;;;;;;;;;;;13.89;100.00;98115.56;5127998;28;20145;-69
2022/08/26 03:49:30;;;;;;;;;;;;;;;13.98;100.00;98120.50;5128178;27;19950;-69
2022/08/26 03:51:56;;;;;;;;;;;;;;;13.99;100.00;98119.56;5108131;28;19920;-69
2022/08/26 03:54:21;;;;;;;;;;;;;;;14.02;100.00;98122.09;5107583;28;19939;-69
2022/08/26 03:56:46;;;;;;;;;;;;;;;14.02;100.00;98122.09;5107668;28;20077;-69
2022/08/26 03:59:11;;;;;;;;;;;;;;;13.97;100.00;98116.13;5107567;28;20112;-69
2022/08/26 04:01:37;;;;;;;;;;;;;;;13.99;100.00;98122.22;5123891;28;19982;-69
2022/08/26 04:04:02;;;;;;;;;;;;;;;13.94;100.00;98119.75;5127879;28;19945;-69
2022/08/26 04:06:35;;;;;;;;;;;;;;;13.87;100.00;98122.69;5128069;28;19935;-69
2022/08/26 04:09:04;;;;;;;;;;;;;;;13.82;100.00;98122.00;5127807;28;19914;-69
2022/08/26 04:11:30;;;;;;;;;;;;;;;13.82;100.00;98124.66;5108451;28;19924;-69
2022/08/26 04:13:58;;;;;;;;;;;;;;;13.81;100.00;98122.94;5107208;28;19945;-69
2022/08/26 04:16:23;;;;;;;;;;;;;;;13.74;100.00;98117.06;5106391;28;19999;-69
2022/08/26 04:18:49;;;;;;;;;;;;;;;13.67;100.00;98114.72;5107184;28;20216;-69
2022/08/26 04:21:14;;;;;;;;;;;;;;;13.67;100.00;98125.28;5123938;28;19933;-69
2022/08/26 04:23:39;;;;;;;;;;;;;;;13.75;100.00;98128.47;5127521;28;19954;-69
2022/08/26 04:26:04;;;;;;;;;;;;;;;13.78;100.00;98128.34;5127536;28;19908;-69
2022/08/26 04:28:30;;;;;;;;;;;;;;;13.80;100.00;98126.53;5127329;28;19907;-69
2022/08/26 04:30:56;;;;;;;;;;;;;;;13.78;100.00;98133.66;5126888;28;19919;-69
2022/08/26 04:33:21;;;;;;;;;;;;;;;13.76;100.00;98130.22;5113404;28;19947;-71
2022/08/26 04:35:47;;;;;;;;;;;;;;;13.72;100.00;98139.19;5121626;28;19934;-69
2022/08/26 04:38:13;;;;;;;;;;;;;;;13.70;100.00;98136.59;5123758;27;19933;-68
2022/08/26 04:40:47;;;;;;;;;;;;;;;13.78;100.00;98141.59;5106963;28;19912;-69
2022/08/26 04:43:12;;;;;;;;;;;;;;;13.84;100.00;98144.84;5106831;28;19908;-69
2022/08/26 04:45:39;;;;;;;;;;;;;;;13.74;100.00;98137.34;5106956;28;19962;-69
2022/08/26 04:48:04;;;;;;;;;;;;;;;13.69;100.00;98139.28;5106651;28;19950;-69
2022/08/26 04:50:29;;;;;;;;;;;;;;;13.67;100.00;98146.44;5106552;28;20259;-69
2022/08/26 04:52:55;;;;;;;;;;;;;;;13.51;100.00;98140.03;5106446;28;19909;-69
2022/08/26 04:55:20;;;;;;;;;;;;;;;13.55;100.00;98142.50;5106541;28;20208;-69
2022/08/26 04:57:46;;;;;;;;;;;;;;;13.63;100.00;98140.41;5106438;28;20317;-69
2022/08/26 05:00:12;;;;;;;;;;;;;;;13.72;100.00;98155.03;5106379;28;19957;-69
2022/08/26 05:02:37;;;;;;;;;;;;;;;13.81;100.00;98141.47;5106578;28;19916;-69
2022/08/26 05:05:04;;;;;;;;;;;;;;;13.90;100.00;98149.91;5106311;28;20108;-69
2022/08/26 05:07:30;;;;;;;;;;;;;;;14.13;100.00;98162.19;5106243;28;19908;-69
2022/08/26 05:09:55;;;;;;;;;;;;;;;14.26;100.00;98160.78;5106212;28;19974;-69
2022/08/26 05:12:20;;;;;;;;;;;;;;;14.38;99.94;98163.81;5106038;28;19908;-69
2022/08/26 05:14:45;;;;;;;;;;;;;;;14.62;99.71;98169.84;5106078;28;19975;-69
2022/08/26 05:17:11;;;;;;;;;;;;;;;15.04;98.49;98171.47;5106021;28;19953;-69
2022/08/26 05:19:36;;;;;;;;;;;;;;;15.48;94.67;98169.53;5104844;28;19924;-69
2022/08/26 05:22:01;;;;;;;;;;;;;;;15.88;91.12;98174.66;5105928;28;19947;-69
2022/08/26 05:24:27;;;;;;;;;;;;;;;16.27;88.95;98170.09;5105911;28;19915;-69
2022/08/26 05:26:53;;;;;;;;;;;;;;;16.46;87.29;98176.22;5105742;28;19915;-69
2022/08/26 05:29:18;;;;;;;;;;;;;;;16.72;86.52;98162.50;5105784;28;19939;-69
2022/08/26 05:31:43;;;;;;;;;;;;;;;17.07;84.21;98169.50;5105527;28;19959;-69
2022/08/26 05:34:09;;;;;;;;;;;;;;;17.49;83.36;98177.03;5105728;28;19915;-69
2022/08/26 05:36:34;;;;;;;;;;;;;;;17.98;80.95;98180.50;5105686;28;19950;-69
2022/08/26 05:39:00;;;;;;;;;;;;;;;18.28;79.61;98181.44;5105644;28;19983;-69
2022/08/26 05:41:30;;;;;;;;;;;;;;;18.77;76.73;98188.34;5105875;28;20106;-69
2022/08/26 05:43:56;;;;;;;;;;;;;;;19.08;75.37;98183.75;5105575;28;19915;-69
2022/08/26 05:46:22;;;;;;;;;;;;;;;19.63;74.02;98186.59;5105745;28;19975;-69
2022/08/26 05:48:47;;;;;;;;;;;;;;;19.60;73.57;98181.44;5105481;28;19915;-69
2022/08/26 05:51:12;;;;;;;;;;;;;;;19.97;72.79;98183.50;5105389;28;19947;-69
2022/08/26 05:53:39;;;;;;;;;;;;;;;19.67;72.51;98180.09;5105623;28;19908;-69
2022/08/26 05:56:05;;;;;;;;;;;;;;;19.67;74.11;98180.09;5105323;28;19915;-69
2022/08/26 05:58:32;;;;;;;;;;;;;;;19.81;73.22;98180.09;5105240;28;20196;-69
2022/08/26 06:01:01;;;;;;;;;;;;;;;20.25;73.10;98191.47;5105124;28;19982;-69
2022/08/26 06:03:27;;;;;;;;;;;;;;;20.94;70.86;98186.84;5105285;28;19907;-69
2022/08/26 06:05:53;;;;;;;;;;;;;;;21.47;68.84;98195.66;5105436;28;19919;-69
2022/08/26 06:08:20;;;;;;;;;;;;;;;21.53;69.66;98192.56;5105142;28;19912;-69
2022/08/26 06:10:55;;;;;;;;;;;;;;;22.07;68.69;98196.69;5105120;28;20196;-69
2022/08/26 06:13:23;;;;;;;;;;;;;;;22.46;66.10;98199.16;5105225;28;19919;-69
2022/08/26 06:15:49;;;;;;;;;;;;;;;22.80;65.99;98193.88;5105021;28;19915;-69
2022/08/26 06:18:16;;;;;;;;;;;;;;;23.22;64.84;98206.72;5105021;28;19975;-69
2022/08/26 06:20:43;;;;;;;;;;;;;;;23.95;63.05;98212.59;5104897;28;19908;-69
2022/08/26 06:25:56;;;;;;;;;;;;;;;24.68;59.48;98203.00;5104831;28;19915;-69
2022/08/26 06:28:22;;;;;;;;;;;;;;;24.87;59.19;98205.88;5104757;28;19908;-69
2022/08/26 06:30:47;;;;;;;;;;;;;;;24.86;59.18;98206.84;5104682;28;20112;-70
2022/08/26 06:33:13;;;;;;;;;;;;;;;24.82;58.28;98204.53;5104738;28;19912;-70
2022/08/26 06:35:38;;;;;;;;;;;;;;;25.32;58.04;98213.78;5104811;28;20089;-70
2022/08/26 06:38:04;;;;;;;;;;;;;;;25.79;56.65;98224.00;5104701;28;19908;-70
2022/08/26 06:40:30;;;;;;;;;;;;;;;25.63;57.85;98216.41;5104504;28;19908;-70
2022/08/26 06:42:55;;;;;;;;;;;;;;;25.83;56.74;98211.97;5104650;28;19908;-70
2022/08/26 06:45:20;;;;;;;;;;;;;;;26.30;55.85;98209.53;5104632;28;19908;-70
2022/08/26 06:47:45;;;;;;;;;;;;;;;26.58;55.58;98213.28;5104543;28;19909;-70
2022/08/26 06:50:11;;;;;;;;;;;;;;;26.48;55.21;98209.72;5104587;28;19940;-70
2022/08/26 06:52:36;;;;;;;;;;;;;;;27.36;52.69;98221.38;5104494;28;19912;-70
2022/08/26 06:55:01;;;;;;;;;;;;;;;28.02;52.62;98221.22;5104507;28;19908;-70
2022/08/26 06:57:27;;;;;;;;;;;;;;;28.99;51.12;98213.31;5104452;28;19923;-70
2022/08/26 06:59:52;;;;;;;;;;;;;;;29.60;50.03;98215.22;5104489;28;19983;-70
2022/08/26 07:02:18;;;;;;;;;;;;;;;30.00;48.76;98215.53;5104532;28;20223;-70
2022/08/26 07:04:43;;;;;;;;;;;;;;;30.18;48.89;98213.66;5104702;28;20204;-70
2022/08/26 07:07:12;;;;;;;;;;;;;;;30.62;47.75;98220.59;5104466;28;19944;-70
2022/08/26 07:09:37;;;;;;;;;;;;;;;31.33;45.27;98213.72;5104455;28;19908;-70
2022/08/26 07:12:03;;;;;;;;;;;;;;;31.37;44.73;98215.06;5104535;28;20137;-70
2022/08/26 07:14:30;;;;;;;;;;;;;;;31.24;43.27;98209.25;5104331;28;19971;-70
2022/08/26 07:16:55;;;;;;;;;;;;;;;31.65;42.86;98210.97;5104329;28;19999;-70
2022/08/26 07:19:20;;;;;;;;;;;;;;;32.15;42.55;98211.63;5104318;28;20200;-70
2022/08/26 07:21:46;;;;;;;;;;;;;;;32.48;41.88;98207.78;5104329;28;20219;-70
2022/08/26 07:24:11;;;;;;;;;;;;;;;32.31;42.90;98211.56;5104213;28;20108;-70
2022/08/26 07:26:37;;;;;;;;;;;;;;;32.41;41.15;98212.22;5104237;28;19940;-70
2022/08/26 07:29:02;;;;;;;;;;;;;;;31.73;43.66;98204.69;5104120;28;19969;-70
2022/08/26 07:31:29;;;;;;;;;;;;;;;31.01;43.05;98191.88;5103972;28;19955;-70
2022/08/26 07:33:55;;;;;;;;;;;;;;;31.97;43.51;98212.81;5104187;28;19908;-70
2022/08/26 07:36:21;;;;;;;;;;;;;;;33.08;41.77;98211.56;5104162;28;19908;-70
2022/08/26 07:38:47;;;;;;;;;;;;;;;33.61;40.35;98209.81;5104182;28;19915;-70
2022/08/26 07:41:14;;;;;;;;;;;;;;;33.70;39.75;98206.84;5104186;28;19908;-70
2022/08/26 07:43:39;;;;;;;;;;;;;;;33.94;39.65;98208.53;5104135;28;19908;-70
2022/08/26 07:49:07;;;;;;;;;;;;;;;35.17;36.62;98209.38;5104010;28;19977;-70
2022/08/26 07:51:33;;;;;;;;;;;;;;;35.19;36.04;98206.47;5105416;28;19916;-70
2022/08/26 07:53:58;;;;;;;;;;;;;;;35.42;35.83;98210.72;5107686;28;19912;-70
2022/08/26 07:56:24;;;;;;;;;;;;;;;35.33;36.66;98214.63;5107676;28;19943;-70
2022/08/26 07:58:49;;;;;;;;;;;;;;;35.16;36.05;98207.69;5107595;28;19908;-70
2022/08/26 08:01:15;;;;;;;;;;;;;;;36.20;34.43;98214.19;5107582;28;19908;-70
2022/08/26 08:03:40;;;;;;;;;;;;;;;35.91;35.53;98217.13;5107479;28;19943;-70
2022/08/26 08:06:05;;;;;;;;;;;;;;;36.31;34.08;98216.38;5107435;28;19908;-70
2022/08/26 08:08:31;;;;;;;;;;;;;;;35.68;35.54;98213.72;5107706;28;19908;-70
2022/08/26 08:10:56;;;;;;;;;;;;;;;34.66;37.01;98199.50;5107324;28;19953;-70
2022/08/26 08:13:22;;;;;;;;;;;;;;;35.24;36.23;98204.81;5107297;28;19987;-70
2022/08/26 08:15:47;;;;;;;;;;;;;;;35.38;35.67;98201.22;5107239;28;20196;-70
2022/08/26 08:18:12;;;;;;;;;;;;;;;36.35;34.03;98212.16;5107324;28;20228;-70
2022/08/26 08:20:38;;;;;;;;;;;;;;;35.86;34.92;98211.38;5107164;28;19915;-70
2022/08/26 08:23:03;;;;;;;;;;;;;;;36.23;33.84;98210.19;5107351;28;19908;-70
2022/08/26 08:25:29;;;;;;;;;;;;;;;36.54;33.95;98221.59;5107111;28;19939;-70
2022/08/26 08:27:55;;;;;;;;;;;;;;;37.33;32.98;98217.28;5106949;28;19908;-69
2022/08/26 08:30:20;;;;;;;;;;;;;;;36.85;33.32;98211.84;5106867;28;19916;-69
2022/08/26 08:32:46;;;;;;;;;;;;;;;36.71;33.42;98207.31;5106927;28;19992;-69
2022/08/26 08:35:12;;;;;;;;;;;;;;;36.06;34.11;98212.38;5107001;28;19908;-70
2022/08/26 08:37:39;;;;;;;;;;;;;;;36.08;34.11;98218.50;5106854;28;20197;-70
2022/08/26 08:40:06;;;;;;;;;;;;;;;36.32;33.74;98201.59;5106780;28;19975;-70
2022/08/26 08:42:31;;;;;;;;;;;;;;;36.83;33.69;98211.19;5106993;28;20222;-70
2022/08/26 08:44:58;;;;;;;;;;;;;;;36.76;34.06;98214.97;5106749;28;19936;-70
2022/08/26 08:47:32;;;;;;;;;;;;;;;36.94;32.84;98203.44;5106701;28;19919;-70
2022/08/26 08:50:02;;;;;;;;;;;;;;;35.98;33.97;98204.31;5106640;28;19912;-70
2022/08/26 08:52:33;;;;;;;;;;;;;;;35.63;35.68;98199.78;5106439;28;19919;-70
2022/08/26 08:54:59;;;;;;;;;;;;;;;35.64;34.75;98200.59;5106472;28;19908;-70
2022/08/26 08:57:24;;;;;;;;;;;;;;;35.66;34.87;98199.38;5106531;28;19915;-70
2022/08/26 08:59:55;;;;;;;;;;;;;;;36.02;34.28;98200.13;5106463;28;19914;-70
2022/08/26 09:02:29;;;;;;;;;;;;;;;36.11;34.60;98203.56;5106123;28;20142;-70
2022/08/26 09:05:01;;;;;;;;;;;;;;;35.90;33.87;98201.72;5106220;28;19976;-70
2022/08/26 09:07:35;;;;;;;;;;;;;;;35.54;35.01;98198.22;5106477;28;19908;-70
2022/08/26 09:10:20;;;;;;;;;;;;;;;36.09;34.53;98200.19;5106483;28;19908;-70
2022/08/26 09:12:46;;;;;;;;;;;;;;;36.12;33.95;98200.59;5105999;28;19912;-70
2022/08/26 09:15:17;;;;;;;;;;;;;;;36.00;34.72;98201.38;5106404;28;19908;-70
2022/08/26 09:17:55;;;;;;;;;;;;;;;35.34;35.14;98183.50;5106335;28;20211;-70
2022/08/26 09:20:30;;;;;;;;;;;;;;;36.26;34.10;98199.66;5106105;28;19946;-70
2022/08/26 09:22:55;;;;;;;;;;;;;;;36.25;34.19;98195.22;5105970;28;19939;-70
2022/08/26 09:25:20;;;;;;;;;;;;;;;36.08;34.26;98199.31;5106010;28;20245;-70
2022/08/26 09:27:47;;;;;;;;;;;;;;;35.73;35.02;98199.44;5105791;28;19915;-70
2022/08/26 09:30:15;;;;;;;;;;;;;;;35.63;34.88;98188.84;5105672;28;19987;-70
2022/08/26 09:32:41;;;;;;;;;;;;;;;35.75;34.55;98187.22;5105728;28;19916;-70
2022/08/26 09:35:22;;;;;;;;;;;;;;;35.25;34.84;98179.16;5105742;28;20111;-70
2022/08/26 09:37:48;;;;;;;;;;;;;;;34.58;36.42;98172.28;5105577;28;19927;-70
2022/08/26 09:40:13;;;;;;;;;;;;;;;34.53;36.65;98169.25;5105645;28;19915;-70
2022/08/26 09:42:38;;;;;;;;;;;;;;;34.61;36.52;98174.63;5105585;28;19915;-70
2022/08/26 09:45:07;;;;;;;;;;;;;;;34.80;36.05;98168.56;5105551;28;19945;-70
2022/08/26 09:47:35;;;;;;;;;;;;;;;34.83;35.78;98162.69;5105466;28;19908;-70
2022/08/26 09:50:03;;;;;;;;;;;;;;;35.13;35.54;98167.03;5105490;28;19908;-70
2022/08/26 09:52:28;;;;;;;;;;;;;;;35.73;35.39;98172.91;5105243;28;19912;-70
2022/08/26 09:55:02;;;;;;;;;;;;;;;35.70;34.56;98156.88;5105400;28;19915;-70
2022/08/26 09:57:29;;;;;;;;;;;;;;;34.57;36.04;98145.94;5105324;28;20167;-70
2022/08/26 09:59:55;;;;;;;;;;;;;;;35.16;35.24;98146.66;5105371;28;19908;-70
2022/08/26 10:02:29;;;;;;;;;;;;;;;35.97;34.57;98153.28;5105253;28;19953;-70
2022/08/26 10:04:56;;;;;;;;;;;;;;;35.93;34.15;98152.00;5105186;28;19931;-70
2022/08/26 10:07:33;;;;;;;;;;;;;;;36.07;33.90;98153.78;5105162;28;19908;-70
2022/08/26 10:10:01;;;;;;;;;;;;;;;35.55;34.75;98141.59;5105081;28;19974;-70
2022/08/26 10:12:27;;;;;;;;;;;;;;;34.91;35.23;98132.50;5104972;28;19912;-70
2022/08/26 10:14:57;;;;;;;;;;;;;;;34.80;33.79;98120.16;5104325;28;20015;-70
2022/08/26 10:17:30;;;;;;;;;;;;;;;34.95;34.32;98122.84;5105010;28;20144;-70
2022/08/26 10:20:02;;;;;;;;;;;;;;;34.87;34.28;98117.53;5105221;28;19908;-70
2022/08/26 10:22:46;;;;;;;;;;;;;;;35.28;33.78;98121.31;5105267;28;19908;-70
2022/08/26 10:25:19;;;;;;;;;;;;;;;35.16;34.28;98109.19;5105125;28;20219;-70
2022/08/26 10:27:51;;;;;;;;;;;;;;;35.96;34.13;98129.69;5111773;28;20050;-71
2022/08/26 10:30:17;;;;;;;;;;;;;;;36.34;32.92;98117.28;5105886;28;19920;-71
2022/08/26 10:32:50;;;;;;;;;;;;;;;36.07;33.58;98109.09;5104794;28;19956;-71
2022/08/26 10:35:18;;;;;;;;;;;;;;;34.64;35.67;98094.97;5104308;28;20400;-71
2022/08/26 10:37:46;;;;;;;;;;;;;;;34.45;35.90;98092.84;5114576;28;20146;-71
2022/08/26 10:40:14;;;;;;;;;;;;;;;34.77;35.94;98093.19;5124520;28;19911;-71
2022/08/26 10:42:54;;;;;;;;;;;;;;;35.07;35.08;98088.47;5125055;28;19907;-71
2022/08/26 10:45:24;;;;;;;;;;;;;;;33.26;37.57;98065.81;5125097;28;19908;-71
2022/08/26 10:47:49;;;;;;;;;;;;;;;31.81;39.11;98049.53;5112688;28;19912;-71
2022/08/26 10:50:15;;;;;;;;;;;;;;;32.49;38.91;98073.22;5115129;28;19912;-71
2022/08/26 10:53:03;;;;;;;;;;;;;;;33.58;37.01;98076.44;5133794;28;19911;-71
2022/08/26 10:55:35;;;;;;;;;;;;;;;33.43;37.20;98067.41;5135766;28;19914;-71
2022/08/26 10:58:09;;;;;;;;;;;;;;;33.17;37.38;98056.88;5143300;27;19907;-71
2022/08/26 11:03:31;;;;;;;;;;;;;;;33.33;37.68;98047.66;5104505;28;20074;-71
2022/08/26 11:06:14;;;;;;;;;;;;;;;33.85;36.66;98048.50;5117482;28;19954;-71
2022/08/26 11:08:47;;;;;;;;;;;;;;;33.85;36.64;98051.22;5119258;28;19912;-71
2022/08/26 11:11:33;;;;;;;;;;;;;;;34.12;36.18;98047.81;5118877;28;20179;-71
2022/08/26 11:14:00;;;;;;;;;;;;;;;33.56;36.94;98035.69;5132482;28;19915;-71
2022/08/26 11:16:35;;;;;;;;;;;;;;;33.15;38.02;98047.19;5104327;28;20197;-71
2022/08/26 11:19:00;;;;;;;;;;;;;;;33.88;36.11;98056.34;5115287;28;19912;-71
2022/08/26 11:21:42;;;;;;;;;;;;;;;33.43;36.81;98040.13;5123898;28;20103;-71
2022/08/26 11:24:07;;;;;;;;;;;;;;;33.50;37.26;98041.88;5120861;28;19920;-71
2022/08/26 11:26:33;;;;;;;;;;;;;;;33.23;38.40;98038.91;5107539;28;19919;-71
2022/08/26 11:28:58;;;;;;;;;;;;;;;33.02;38.48;98031.44;5108120;28;19912;-71
2022/08/26 11:31:26;;;;;;;;;;;;;;;33.31;38.51;98036.94;5109985;28;20206;-71
2022/08/26 11:33:58;;;;;;;;;;;;;;;33.17;38.30;98034.19;5112145;28;19911;-71
2022/08/26 11:36:33;;;;;;;;;;;;;;;32.89;37.84;98026.63;5128479;28;20142;-71
2022/08/26 11:39:00;;;;;;;;;;;;;;;32.99;38.68;98038.09;5128478;28;19975;-71
2022/08/26 11:41:28;;;;;;;;;;;;;;;32.80;38.28;98035.84;5128672;28;19981;-71
2022/08/26 11:43:54;;;;;;;;;;;;;;;32.59;39.08;98024.78;5128444;28;20099;-71
2022/08/26 11:46:24;;;;;;;;;;;;;;;32.11;38.93;98011.44;5128244;28;19907;-71
2022/08/26 11:48:50;;;;;;;;;;;;;;;31.09;41.62;98010.59;5128286;27;19907;-71
2022/08/26 11:51:24;;;;;;;;;;;;;;;30.37;43.95;98012.44;5128129;27;19914;-71
2022/08/26 11:53:50;;;;;;;;;;;;;;;30.00;44.84;98003.84;5128189;28;19950;-71
2022/08/26 11:56:15;;;;;;;;;;;;;;;29.84;44.70;98009.22;5128206;28;19908;-71
2022/08/26 11:58:41;;;;;;;;;;;;;;;29.76;45.49;97995.59;5127981;28;19911;-71
2022/08/26 12:01:07;;;;;;;;;;;;;;;29.41;45.99;97999.34;5128035;28;19914;-71
2022/08/26 12:03:38;;;;;;;;;;;;;;;29.21;46.41;97996.00;5127936;28;19947;-71
2022/08/26 12:06:11;;;;;;;;;;;;;;;28.87;47.53;97980.69;5128198;28;19930;-71
2022/08/26 12:08:41;;;;;;;;;;;;;;;28.95;47.69;98011.38;5127876;28;19978;-71
2022/08/26 12:11:08;;;;;;;;;;;;;;;28.84;48.43;98008.94;5127805;28;19979;-71
2022/08/26 12:13:37;;;;;;;;;;;;;;;28.82;49.20;98010.13;5127732;28;19907;-71
2022/08/26 12:16:03;;;;;;;;;;;;;;;29.04;48.11;98015.88;5127742;28;19908;-71
2022/08/26 12:18:33;;;;;;;;;;;;;;;29.11;48.81;98013.41;5127719;28;19945;-71
2022/08/26 12:21:00;;;;;;;;;;;;;;;28.72;49.28;98012.06;5127929;28;20195;-71
2022/08/26 12:23:25;;;;;;;;;;;;;;;28.63;49.56;98013.84;5127633;28;19908;-71
2022/08/26 12:25:53;;;;;;;;;;;;;;;28.15;50.02;98009.78;5127523;27;20192;-71
2022/08/26 12:28:20;;;;;;;;;;;;;;;28.16;50.31;98009.66;5127444;28;20229;-71
2022/08/26 12:30:58;;;;;;;;;;;;;;;28.27;49.79;98014.84;5127292;28;19927;-71
2022/08/26 12:33:24;;;;;;;;;;;;;;;28.13;50.44;98015.41;5127317;28;19915;-71
2022/08/26 12:35:50;;;;;;;;;;;;;;;28.18;50.16;98009.50;5127353;28;20226;-71
2022/08/26 12:38:16;;;;;;;;;;;;;;;28.10;50.02;98014.84;5126637;28;19908;-71
2022/08/26 12:40:42;;;;;;;;;;;;;;;28.14;50.15;98011.69;5127469;28;20195;-71
2022/08/26 12:43:08;;;;;;;;;;;;;;;27.99;50.46;98015.91;5127194;28;19949;-71
2022/08/26 15:10:30;;;;;;;19.95;11.80;;;;;;;26.94;58.16;98046.03;5118794;27;20584;-68
2022/08/26 15:12:55;;;;;;;20.65;12.73;;;;;;;26.91;58.25;98042.75;5100033;28;20024;-68
2022/08/26 15:15:21;;;;;;;20.45;12.55;;;;;;;26.86;57.99;98055.88;5099305;28;20035;-70
2022/08/26 15:17:46;;;;;;;18.10;11.00;;;;;;;26.84;58.20;98066.81;5098810;28;20024;-69
2022/08/26 15:20:12;;;;;;;20.52;11.98;;;;;;;26.75;58.85;98083.00;5099818;28;20087;-69